Time;durP1;ratioP1;P1;durP2;ratioP2;P2;SDS_P1;SDS_P2;PMS_P1;PMS_P2;Temp;Humidity;BMP_temperature;BMP_pressure;BME280_temperature;BME280_humidity;BME280_pressure;Samples;Min_cycle;Max_cycle;Signal;HPM_P1;HPM_P2
2023/02/14 00:02:27;;;;;;;0.60;0.60;;;;;;;;;;5110925;28;20488;-89
2023/02/14 00:04:54;;;;;;;1.38;1.30;;;;;;;;;;5110548;28;20054;-89
2023/02/14 00:07:21;;;;;;;0.40;0.40;;;;;;;;;;5113501;28;20131;-89
2023/02/14 00:09:55;;;;;;;0.95;0.95;;;;;;;;;;5113218;28;20059;-89
2023/02/14 00:12:25;;;;;;;0.73;0.73;;;;;;;;;;5113608;28;20104;-90
2023/02/14 00:17:38;;;;;;;1.02;1.02;;;;;;;;;;5109477;28;20062;-89
2023/02/14 00:20:08;;;;;;;2.05;1.00;;;;;;;;;;5108903;28;20048;-90
2023/02/14 00:22:35;;;;;;;2.17;2.08;;;;;;;;;;5107823;28;20052;-90
2023/02/14 00:25:03;;;;;;;1.58;0.77;;;;;;;;;;5112654;28;20047;-89
2023/02/14 00:27:30;;;;;;;1.88;1.25;;;;;;;;;;5106821;28;20077;-90
2023/02/14 00:30:00;;;;;;;2.03;1.92;;;;;;;;;;5096069;28;20044;-88
2023/02/14 00:32:27;;;;;;;3.03;2.90;;;;;;;;;;5095484;28;20098;-87
2023/02/14 00:34:53;;;;;;;0.70;0.70;;;;;;;;;;5095745;28;20048;-87
2023/02/14 00:37:20;;;;;;;0.88;0.88;;;;;;;;;;5095803;28;20128;-88
2023/02/14 00:39:47;;;;;;;1.90;1.80;;;;;;;;;;5096077;28;20048;-88
2023/02/14 00:42:15;;;;;;;1.92;1.15;;;;;;;;;;5095866;28;20048;-88
2023/02/14 00:44:41;;;;;;;0.85;0.85;;;;;;;;;;5095471;28;20050;-87
2023/02/14 00:47:08;;;;;;;5.82;2.72;;;;;;;;;;5095141;28;20105;-87
2023/02/14 00:49:34;;;;;;;1.15;1.15;;;;;;;;;;5095472;28;20098;-87
2023/02/14 00:52:01;;;;;;;0.38;0.28;;;;;;;;;;5095217;28;20093;-88
2023/02/14 00:54:28;;;;;;;2.88;2.20;;;;;;;;;;5095606;28;20048;-88
2023/02/14 00:56:54;;;;;;;1.23;1.05;;;;;;;;;;5095145;28;20052;-88
2023/02/14 00:59:22;;;;;;;1.42;1.05;;;;;;;;;;5094867;28;20048;-88
2023/02/14 01:01:48;;;;;;;0.90;0.88;;;;;;;;;;5095381;28;20047;-88
2023/02/14 01:04:15;;;;;;;1.15;1.15;;;;;;;;;;5094910;28;20554;-87
2023/02/14 01:06:42;;;;;;;2.42;1.92;;;;;;;;;;5094490;28;20048;-87
2023/02/14 01:09:08;;;;;;;3.10;1.63;;;;;;;;;;5094415;28;20052;-88
2023/02/14 01:11:35;;;;;;;1.02;1.02;;;;;;;;;;5095034;28;20048;-88
2023/02/14 01:14:01;;;;;;;2.28;2.17;;;;;;;;;;5095044;28;20059;-88
2023/02/14 01:16:29;;;;;;;1.30;1.27;;;;;;;;;;5095342;28;20105;-88
2023/02/14 01:18:56;;;;;;;0.75;0.75;;;;;;;;;;5094922;28;20048;-89
2023/02/14 01:21:24;;;;;;;1.02;1.02;;;;;;;;;;5094646;28;20164;-88
2023/02/14 01:23:52;;;;;;;2.15;2.05;;;;;;;;;;5094336;28;20501;-88
2023/02/14 01:26:19;;;;;;;3.28;2.47;;;;;;;;;;5094850;28;20048;-88
2023/02/14 01:28:46;;;;;;;1.48;1.42;;;;;;;;;;5094006;28;20044;-89
2023/02/14 01:31:13;;;;;;;0.88;0.88;;;;;;;;;;5094538;28;20516;-88
2023/02/14 01:33:42;;;;;;;7.28;6.88;;;;;;;;;;5094229;28;20051;-88
2023/02/14 01:36:14;;;;;;;1.85;1.40;;;;;;;;;;5095021;28;20044;-89
2023/02/14 01:38:41;;;;;;;2.63;2.00;;;;;;;;;;5094812;28;20055;-88
2023/02/14 01:41:07;;;;;;;0.70;0.70;;;;;;;;;;5094597;28;20043;-88
2023/02/14 01:43:48;;;;;;;0.50;0.50;;;;;;;;;;5094461;28;20093;-88
2023/02/14 01:46:15;;;;;;;2.63;2.40;;;;;;;;;;5094324;28;20101;-89
2023/02/14 01:48:43;;;;;;;1.35;0.65;;;;;;;;;;5094220;28;20078;-89
2023/02/14 01:51:09;;;;;;;1.63;1.55;;;;;;;;;;5094516;28;20522;-89
2023/02/14 01:53:36;;;;;;;1.27;1.17;;;;;;;;;;5094484;28;20101;-89
2023/02/14 01:56:04;;;;;;;0.68;0.68;;;;;;;;;;5094414;28;20059;-88
2023/02/14 01:58:33;;;;;;;0.35;0.35;;;;;;;;;;5094333;28;20105;-88
2023/02/14 02:01:00;;;;;;;1.17;1.17;;;;;;;;;;5094498;28;20052;-89
2023/02/14 02:03:29;;;;;;;0.70;0.70;;;;;;;;;;5094199;28;20481;-88
2023/02/14 02:05:59;;;;;;;11.85;11.00;;;;;;;;;;5093992;28;20550;-88
2023/02/14 02:08:26;;;;;;;2.03;1.92;;;;;;;;;;5094174;28;20047;-89
2023/02/14 02:10:52;;;;;;;3.33;3.22;;;;;;;;;;5093775;28;20056;-88
2023/02/14 02:13:20;;;;;;;0.38;0.38;;;;;;;;;;5093802;28;20181;-88
2023/02/14 02:15:51;;;;;;;0.85;0.85;;;;;;;;;;5094585;28;20063;-88
2023/02/14 02:18:22;;;;;;;2.22;2.00;;;;;;;;;;5094040;28;20051;-89
2023/02/14 02:21:07;;;;;;;0.90;0.90;;;;;;;;;;5093375;28;20058;-88
2023/02/14 02:23:51;;;;;;;1.10;1.10;;;;;;;;;;5094325;28;20048;-87
2023/02/14 02:26:18;;;;;;;;;;;;;;;;;;5080715;28;20048;-88
2023/02/14 02:29:03;;;;;;;1.35;1.33;;;;;;;;;;5094211;28;19920;-88
2023/02/14 02:31:41;;;;;;;1.63;1.58;;;;;;;;;;5094017;28;20060;-88
2023/02/14 02:34:19;;;;;;;0.57;0.57;;;;;;;;;;5093798;28;20047;-88
2023/02/14 02:36:55;;;;;;;3.15;2.38;;;;;;;;;;5093318;28;20486;-88
2023/02/14 02:39:29;;;;;;;0.98;0.98;;;;;;;;;;5093569;28;20048;-89
2023/02/14 02:42:00;;;;;;;1.77;1.67;;;;;;;;;;5093794;28;20116;-87
2023/02/14 02:44:31;;;;;;;1.60;1.52;;;;;;;;;;5093679;28;20048;-88
2023/02/14 02:46:59;;;;;;;0.75;0.75;;;;;;;;;;5093743;28;20052;-88
2023/02/14 02:55:03;;;;;;;1.98;1.88;;;;;;;;;;5093210;28;20102;-88
2023/02/14 02:57:32;;;;;;;1.52;1.52;;;;;;;;;;5093921;28;20486;-88
2023/02/14 02:59:59;;;;;;;1.23;1.20;;;;;;;;;;5093669;28;20044;-88
2023/02/14 03:02:28;;;;;;;1.83;1.73;;;;;;;;;;5093405;28;20044;-89
2023/02/14 03:04:55;;;;;;;2.40;1.67;;;;;;;;;;5093431;28;20048;-89
2023/02/14 03:07:35;;;;;;;1.30;1.27;;;;;;;;;;5093948;28;20056;-88
2023/02/14 03:10:05;;;;;;;1.83;1.73;;;;;;;;;;5093753;28;20051;-88
2023/02/14 03:12:53;;;;;;;0.47;0.47;;;;;;;;;;5093536;28;20097;-88
2023/02/14 03:15:22;;;;;;;1.58;1.48;;;;;;;;;;5088462;28;20497;-88
2023/02/14 03:17:53;;;;;;;1.20;1.13;;;;;;;;;;5093257;28;20083;-88
2023/02/14 03:20:22;;;;;;;1.77;1.67;;;;;;;;;;5093015;28;20113;-88
2023/02/14 03:22:52;;;;;;;1.02;1.02;;;;;;;;;;5093079;28;20044;-89
2023/02/14 03:25:28;;;;;;;2.70;2.60;;;;;;;;;;5092935;28;20473;-88
2023/02/14 03:27:58;;;;;;;1.70;1.60;;;;;;;;;;5093123;28;20126;-88
2023/02/14 03:30:28;;;;;;;1.10;1.08;;;;;;;;;;5093746;28;20047;-88
2023/02/14 03:32:58;;;;;;;1.13;1.10;;;;;;;;;;5097056;28;20104;-88
2023/02/14 03:35:28;;;;;;;2.55;2.45;;;;;;;;;;5096996;28;20040;-88
2023/02/14 03:38:02;;;;;;;1.85;1.45;;;;;;;;;;5096980;28;20459;-88
2023/02/14 03:40:32;;;;;;;2.15;1.85;;;;;;;;;;5096624;28;20052;-88
2023/02/14 03:43:01;;;;;;;2.72;2.50;;;;;;;;;;5097006;28;20052;-88
2023/02/14 03:45:30;;;;;;;1.85;1.77;;;;;;;;;;5096370;28;20043;-88
2023/02/14 03:48:00;;;;;;;2.20;2.00;;;;;;;;;;5096746;28;20076;-88
2023/02/14 03:50:27;;;;;;;2.58;2.35;;;;;;;;;;5096531;28;20052;-87
2023/02/14 03:52:56;;;;;;;1.35;1.27;;;;;;;;;;5096588;28;20052;-88
2023/02/14 03:55:26;;;;;;;1.70;1.60;;;;;;;;;;5096655;28;20044;-88
2023/02/14 03:57:56;;;;;;;1.90;1.80;;;;;;;;;;5096482;28;20047;-88
2023/02/14 04:00:22;;;;;;;2.28;2.17;;;;;;;;;;5096172;28;20044;-89
2023/02/14 04:02:50;;;;;;;1.55;1.45;;;;;;;;;;5096333;28;20109;-87
2023/02/14 04:05:19;;;;;;;2.30;2.20;;;;;;;;;;5096034;28;20493;-88
2023/02/14 04:07:46;;;;;;;2.25;2.15;;;;;;;;;;5096076;28;20051;-87
2023/02/14 04:10:14;;;;;;;3.67;3.28;;;;;;;;;;5096246;28;20048;-88
2023/02/14 04:12:42;;;;;;;4.97;3.22;;;;;;;;;;5096065;28;20515;-89
2023/02/14 04:15:09;;;;;;;0.98;0.98;;;;;;;;;;5096273;28;20051;-88
2023/02/14 04:20:20;;;;;;;3.50;3.30;;;;;;;;;;5096138;28;20124;-88
2023/02/14 04:22:46;;;;;;;1.00;1.00;;;;;;;;;;5096567;28;20052;-88
2023/02/14 04:25:13;;;;;;;1.90;1.73;;;;;;;;;;5096227;28;20504;-88
2023/02/14 04:27:39;;;;;;;2.05;1.77;;;;;;;;;;5096605;28;20052;-88
2023/02/14 04:30:09;;;;;;;2.55;2.45;;;;;;;;;;5096226;28;20439;-88
2023/02/14 04:32:36;;;;;;;1.83;1.75;;;;;;;;;;5095852;28;20078;-89
2023/02/14 04:35:02;;;;;;;3.20;3.00;;;;;;;;;;5095308;28;20056;-88
2023/02/14 04:37:29;;;;;;;0.70;0.70;;;;;;;;;;5096049;28;20056;-87
2023/02/14 04:39:55;;;;;;;1.00;1.00;;;;;;;;;;5095727;28;20044;-88
2023/02/14 04:42:22;;;;;;;0.98;0.98;;;;;;;;;;5094357;28;20300;-88
2023/02/14 04:44:48;;;;;;;0.90;0.75;;;;;;;;;;5095932;28;20048;-88
2023/02/14 04:47:16;;;;;;;1.50;1.25;;;;;;;;;;5095847;28;20447;-88
2023/02/14 04:49:43;;;;;;;2.47;1.88;;;;;;;;;;5095487;28;20590;-87
2023/02/14 04:52:09;;;;;;;2.25;1.55;;;;;;;;;;5095496;28;20393;-88
2023/02/14 04:54:36;;;;;;;1.40;1.35;;;;;;;;;;5095183;28;20044;-88
2023/02/14 04:57:02;;;;;;;1.75;1.65;;;;;;;;;;5095012;28;20060;-88
2023/02/14 04:59:29;;;;;;;1.98;1.88;;;;;;;;;;5095403;28;20047;-88
2023/02/14 05:01:56;;;;;;;2.05;1.88;;;;;;;;;;5095420;28;20048;-88
2023/02/14 05:04:24;;;;;;;1.85;1.75;;;;;;;;;;5095208;28;20052;-88
2023/02/14 05:06:50;;;;;;;1.25;1.23;;;;;;;;;;5095462;28;20109;-87
2023/02/14 05:09:17;;;;;;;0.68;0.68;;;;;;;;;;5095284;28;20514;-88
2023/02/14 05:11:43;;;;;;;2.13;2.03;;;;;;;;;;5094867;28;20048;-88
2023/02/14 05:14:10;;;;;;;1.17;1.17;;;;;;;;;;5095160;28;20048;-88
2023/02/14 05:16:37;;;;;;;1.75;1.65;;;;;;;;;;5095259;28;20073;-87
2023/02/14 05:19:03;;;;;;;3.22;3.13;;;;;;;;;;5095080;28;20040;-87
2023/02/14 05:21:32;;;;;;;0.60;0.60;;;;;;;;;;5094180;28;20056;-87
2023/02/14 05:23:58;;;;;;;1.88;1.77;;;;;;;;;;5094553;28;20044;-87
2023/02/14 05:26:25;;;;;;;2.90;2.72;;;;;;;;;;5094238;28;20056;-86
2023/02/14 05:28:51;;;;;;;1.30;1.15;;;;;;;;;;5094381;28;20048;-87
2023/02/14 05:31:18;;;;;;;2.38;2.28;;;;;;;;;;5094744;28;20051;-87
2023/02/14 05:33:44;;;;;;;2.75;2.20;;;;;;;;;;5094969;28;20043;-87
2023/02/14 05:36:11;;;;;;;3.08;2.88;;;;;;;;;;5092721;28;20056;-88
2023/02/14 05:38:39;;;;;;;1.17;1.15;;;;;;;;;;5089232;28;20051;-87
2023/02/14 05:41:05;;;;;;;2.50;2.40;;;;;;;;;;5094197;28;20488;-88
2023/02/14 05:43:32;;;;;;;2.38;1.92;;;;;;;;;;5094139;28;20097;-88
2023/02/14 05:45:59;;;;;;;2.40;1.85;;;;;;;;;;5093907;28;20043;-89
2023/02/14 05:48:25;;;;;;;1.48;1.38;;;;;;;;;;5094337;28;20056;-89
2023/02/14 05:50:52;;;;;;;2.97;2.55;;;;;;;;;;5094090;28;20101;-89
2023/02/14 05:53:18;;;;;;;0.73;0.73;;;;;;;;;;5086559;28;20056;-89
2023/02/14 05:55:46;;;;;;;1.50;1.40;;;;;;;;;;5073906;28;20049;-89
2023/02/14 05:58:16;;;;;;;2.20;2.10;;;;;;;;;;5082250;28;20044;-89
2023/02/14 06:00:42;;;;;;;1.60;1.50;;;;;;;;;;5085569;28;20499;-90
2023/02/14 06:03:09;;;;;;;1.40;1.33;;;;;;;;;;5093888;28;20052;-89
2023/02/14 06:05:35;;;;;;;2.85;2.65;;;;;;;;;;5093952;28;20044;-88
2023/02/14 06:08:02;;;;;;;2.10;1.95;;;;;;;;;;5094089;28;20113;-89
2023/02/14 06:10:28;;;;;;;2.17;2.08;;;;;;;;;;5093569;28;20052;-88
2023/02/14 06:12:56;;;;;;;1.40;1.33;;;;;;;;;;5093739;28;20055;-88
2023/02/14 06:15:23;;;;;;;2.53;2.42;;;;;;;;;;5093687;28;20047;-89
2023/02/14 06:17:53;;;;;;;1.08;1.08;;;;;;;;;;5093985;28;20108;-87
2023/02/14 06:20:19;;;;;;;3.20;0.68;;;;;;;;;;5093532;28;20048;-87
2023/02/14 06:22:46;;;;;;;2.03;1.73;;;;;;;;;;5093537;28;20055;-88
2023/02/14 06:25:12;;;;;;;2.13;2.03;;;;;;;;;;5093584;28;20169;-89
2023/02/14 06:27:39;;;;;;;2.85;2.70;;;;;;;;;;5093630;28;20051;-88
2023/02/14 06:30:08;;;;;;;3.60;3.35;;;;;;;;;;5093341;28;20078;-89
2023/02/14 06:32:34;;;;;;;0.57;0.57;;;;;;;;;;5093995;28;20044;-88
2023/02/14 06:35:02;;;;;;;2.65;2.08;;;;;;;;;;5093618;28;20055;-88
2023/02/14 06:37:28;;;;;;;3.63;2.67;;;;;;;;;;5093737;28;20052;-89
2023/02/14 06:39:55;;;;;;;3.90;3.33;;;;;;;;;;5093451;28;20059;-88
2023/02/14 06:42:21;;;;;;;1.83;1.67;;;;;;;;;;5093858;28;20094;-88
2023/02/14 06:44:48;;;;;;;2.63;2.53;;;;;;;;;;5093974;28;20063;-88
2023/02/14 06:47:16;;;;;;;3.65;3.45;;;;;;;;;;5093639;28;20044;-89
2023/02/14 06:49:43;;;;;;;3.08;2.95;;;;;;;;;;5093416;28;20052;-87
2023/02/14 06:52:09;;;;;;;2.60;2.50;;;;;;;;;;5093267;28;20497;-88
2023/02/14 06:54:36;;;;;;;2.00;1.90;;;;;;;;;;5093039;28;20056;-88
2023/02/14 06:57:02;;;;;;;2.83;2.63;;;;;;;;;;5092931;28;20483;-88
2023/02/14 06:59:29;;;;;;;3.65;2.50;;;;;;;;;;5092962;28;20052;-89
2023/02/14 07:01:55;;;;;;;2.65;2.33;;;;;;;;;;5093571;28;20052;-88
2023/02/14 07:04:23;;;;;;;4.18;3.95;;;;;;;;;;5093101;28;20097;-88
2023/02/14 07:06:50;;;;;;;3.45;3.25;;;;;;;;;;5096155;28;20047;-89
2023/02/14 07:09:17;;;;;;;2.25;2.15;;;;;;;;;;5097010;28;20451;-89
2023/02/14 07:11:43;;;;;;;1.92;1.83;;;;;;;;;;5097675;28;20048;-88
2023/02/14 07:14:10;;;;;;;1.63;1.52;;;;;;;;;;5097569;28;20059;-87
2023/02/14 07:16:36;;;;;;;2.30;2.20;;;;;;;;;;5097477;28;20116;-88
2023/02/14 07:19:03;;;;;;;2.95;2.80;;;;;;;;;;5097404;28;20486;-89
2023/02/14 07:21:31;;;;;;;2.22;2.13;;;;;;;;;;5097438;28;20044;-89
2023/02/14 07:23:57;;;;;;;3.85;3.47;;;;;;;;;;5096870;28;20055;-89
2023/02/14 07:26:24;;;;;;;2.60;2.17;;;;;;;;;;5097097;28;20052;-87
2023/02/14 07:28:50;;;;;;;3.47;3.35;;;;;;;;;;5097311;28;20040;-87
2023/02/14 07:31:18;;;;;;;2.33;2.13;;;;;;;;;;5097586;28;20052;-87
2023/02/14 07:33:45;;;;;;;4.80;4.03;;;;;;;;;;5097196;28;20098;-87
2023/02/14 07:36:12;;;;;;;1.90;1.73;;;;;;;;;;5097040;28;20052;-88
2023/02/14 07:38:39;;;;;;;3.40;2.97;;;;;;;;;;5097122;28;20040;-87
2023/02/14 07:41:06;;;;;;;2.97;2.45;;;;;;;;;;5096710;28;20044;-89
2023/02/14 07:43:42;;;;;;;4.03;3.78;;;;;;;;;;5100035;28;20078;-88
2023/02/14 07:46:09;;;;;;;3.38;3.17;;;;;;;;;;5097849;28;20127;-88
2023/02/14 07:48:35;;;;;;;8.60;7.88;;;;;;;;;;5096582;28;20044;-87
2023/02/14 07:51:02;;;;;;;5.97;2.72;;;;;;;;;;5097413;28;20063;-87
2023/02/14 07:53:28;;;;;;;3.08;2.88;;;;;;;;;;5096789;28;20052;-88
2023/02/14 07:55:56;;;;;;;5.57;3.40;;;;;;;;;;5096134;28;20097;-88
2023/02/14 07:58:23;;;;;;;2.75;2.63;;;;;;;;;;5096452;28;20052;-88
2023/02/14 08:00:50;;;;;;;3.97;3.55;;;;;;;;;;5096822;28;20055;-89
2023/02/14 08:03:16;;;;;;;2.45;2.28;;;;;;;;;;5097206;28;20467;-89
2023/02/14 08:05:43;;;;;;;1.92;1.83;;;;;;;;;;5097080;28;20052;-89
2023/02/14 08:08:09;;;;;;;2.53;2.40;;;;;;;;;;5096042;28;20047;-88
2023/02/14 08:10:36;;;;;;;7.70;2.78;;;;;;;;;;5096414;28;20048;-88
2023/02/14 08:13:04;;;;;;;1.77;1.70;;;;;;;;;;5096384;28;20056;-88
2023/02/14 08:18:16;;;;;;;3.60;3.28;;;;;;;;;;5096247;28;20059;-89
2023/02/14 08:20:43;;;;;;;2.17;2.08;;;;;;;;;;5096475;28;20055;-89
2023/02/14 08:23:10;;;;;;;3.63;3.42;;;;;;;;;;5096202;28;20068;-88
2023/02/14 08:25:37;;;;;;;8.18;6.53;;;;;;;;;;5096082;28;20044;-88
2023/02/14 08:28:05;;;;;;;5.38;5.07;;;;;;;;;;5096186;28;20063;-89
2023/02/14 08:30:32;;;;;;;4.57;4.22;;;;;;;;;;5095901;28;20051;-88
2023/02/14 08:32:58;;;;;;;4.30;4.05;;;;;;;;;;5095760;28;20052;-88
2023/02/14 08:35:25;;;;;;;4.45;4.25;;;;;;;;;;5095727;28;20461;-87
2023/02/14 08:37:51;;;;;;;4.60;4.20;;;;;;;;;;5094116;28;20048;-89
2023/02/14 08:40:19;;;;;;;8.40;5.47;;;;;;;;;;5095445;28;20169;-89
2023/02/14 08:42:45;;;;;;;4.72;4.35;;;;;;;;;;5095691;28;20443;-89
2023/02/14 08:45:13;;;;;;;6.25;3.80;;;;;;;;;;5097069;28;20057;-89
2023/02/14 08:47:40;;;;;;;3.83;3.63;;;;;;;;;;5095883;28;20116;-89
2023/02/14 08:50:08;;;;;;;4.78;4.38;;;;;;;;;;5095835;28;20113;-89
2023/02/14 08:52:34;;;;;;;4.15;3.35;;;;;;;;;;5095576;28;20059;-89
2023/02/14 08:55:01;;;;;;;4.72;4.32;;;;;;;;;;5097367;28;20056;-89
2023/02/14 08:57:28;;;;;;;4.18;3.88;;;;;;;;;;5105307;28;20489;-89
2023/02/14 08:59:54;;;;;;;3.80;3.50;;;;;;;;;;5105145;28;20090;-89
2023/02/14 09:02:22;;;;;;;6.32;5.72;;;;;;;;;;5105266;28;20059;-89
2023/02/14 09:04:49;;;;;;;4.90;4.50;;;;;;;;;;5105197;28;20105;-88
2023/02/14 09:07:15;;;;;;;4.07;2.83;;;;;;;;;;5103830;28;20048;-88
2023/02/14 09:09:42;;;;;;;2.15;2.00;;;;;;;;;;5103541;28;20051;-89
2023/02/14 09:12:09;;;;;;;2.88;2.67;;;;;;;;;;5095912;28;20044;-88
2023/02/14 09:14:36;;;;;;;3.40;3.05;;;;;;;;;;5094673;28;20044;-88
2023/02/14 09:17:04;;;;;;;4.38;4.07;;;;;;;;;;5094581;28;20044;-88
2023/02/14 09:19:32;;;;;;;2.55;2.38;;;;;;;;;;5094623;28;20135;-88
2023/02/14 09:21:59;;;;;;;2.88;2.42;;;;;;;;;;5094748;28;20055;-88
2023/02/14 09:24:26;;;;;;;4.28;3.33;;;;;;;;;;5094948;28;20063;-88
2023/02/14 09:26:53;;;;;;;3.70;3.40;;;;;;;;;;5095288;28;20111;-88
2023/02/14 09:29:20;;;;;;;3.50;3.00;;;;;;;;;;5094874;28;20044;-88
2023/02/14 09:31:47;;;;;;;6.47;6.05;;;;;;;;;;5094668;28;20052;-88
2023/02/14 09:34:13;;;;;;;4.72;4.30;;;;;;;;;;5094946;28;20051;-89
2023/02/14 09:36:41;;;;;;;5.85;5.45;;;;;;;;;;5094290;28;20448;-89
2023/02/14 09:39:08;;;;;;;2.55;2.30;;;;;;;;;;5094041;28;20059;-89
2023/02/14 09:42:01;;;;;;;8.60;4.82;;;;;;;;;;5094429;28;20052;-90
2023/02/14 09:44:30;;;;;;;5.00;4.53;;;;;;;;;;5094557;28;20086;-90
2023/02/14 09:47:00;;;;;;;7.25;4.88;;;;;;;;;;5103912;28;20055;-88
2023/02/14 09:49:30;;;;;;;8.45;4.35;;;;;;;;;;5097611;28;20409;-88
2023/02/14 09:51:59;;;;;;;4.75;4.35;;;;;;;;;;5093513;28;20172;-88
2023/02/14 09:54:27;;;;;;;3.03;2.92;;;;;;;;;;5093596;28;20098;-88
2023/02/14 09:56:57;;;;;;;2.13;2.00;;;;;;;;;;5093458;28;20056;-89
2023/02/14 09:59:26;;;;;;;4.30;3.30;;;;;;;;;;5093816;28;20056;-87
2023/02/14 10:01:57;;;;;;;4.10;3.80;;;;;;;;;;5095078;28;20157;-89
2023/02/14 10:04:27;;;;;;;6.13;5.18;;;;;;;;;;5094907;28;20059;-88
2023/02/14 10:06:57;;;;;;;4.15;3.67;;;;;;;;;;5095616;28;20059;-88
2023/02/14 10:09:37;;;;;;;2.65;2.50;;;;;;;;;;5094646;28;20434;-87
2023/02/14 10:12:05;;;;;;;4.38;3.00;;;;;;;;;;5093784;28;20056;-87
2023/02/14 10:14:39;;;;;;;5.90;3.50;;;;;;;;;;5093587;28;20052;-89
2023/02/14 10:17:07;;;;;;;5.63;3.13;;;;;;;;;;5093710;28;20048;-88
2023/02/14 10:19:37;;;;;;;2.42;2.33;;;;;;;;;;5093670;28;20054;-89
2023/02/14 10:22:05;;;;;;;1.45;1.35;;;;;;;;;;5093124;28;20511;-90
2023/02/14 10:24:36;;;;;;;4.15;3.25;;;;;;;;;;5093502;28;20503;-89
2023/02/14 10:27:05;;;;;;;7.28;3.63;;;;;;;;;;5093554;28;20095;-89
2023/02/14 10:29:31;;;;;;;5.57;5.18;;;;;;;;;;5093719;28;20104;-90
2023/02/14 10:31:59;;;;;;;3.40;2.45;;;;;;;;;;5093487;28;20106;-88
2023/02/14 10:34:29;;;;;;;5.75;4.97;;;;;;;;;;5093886;28;20135;-89
2023/02/14 10:36:59;;;;;;;2.17;1.98;;;;;;;;;;5093902;28;20459;-89
2023/02/14 10:39:30;;;;;;;6.22;4.85;;;;;;;;;;5093966;28;20052;-90
2023/02/14 10:41:56;;;;;;;;;;;;;;;;;;5097385;28;20037;-88
2023/02/14 10:44:33;;;;;;;3.35;3.13;;;;;;;;;;5097530;28;20369;-88
2023/02/14 10:47:04;;;;;;;4.50;4.10;;;;;;;;;;5097537;28;20055;-91
2023/02/14 10:49:36;;;;;;;3.60;3.30;;;;;;;;;;5097226;28;20056;-88
2023/02/14 10:52:08;;;;;;;3.78;3.08;;;;;;;;;;5097041;28;20053;-90
2023/02/14 10:54:37;;;;;;;2.15;2.05;;;;;;;;;;5096256;28;20518;-89
2023/02/14 10:57:06;;;;;;;3.30;3.08;;;;;;;;;;5098017;28;20051;-90
2023/02/14 10:59:39;;;;;;;2.08;1.98;;;;;;;;;;5096759;28;20055;-90
2023/02/14 11:02:06;;;;;;;14.75;5.35;;;;;;;;;;5097021;28;20045;-89
2023/02/14 11:04:32;;;;;;;8.85;5.60;;;;;;;;;;5097042;28;20101;-87
2023/02/14 11:06:59;;;;;;;7.85;4.80;;;;;;;;;;5096974;28;20064;-88
2023/02/14 11:09:25;;;;;;;3.45;3.22;;;;;;;;;;5096343;28;20493;-88
2023/02/14 11:11:53;;;;;;;2.80;2.63;;;;;;;;;;5096236;28;20044;-89
2023/02/14 11:14:24;;;;;;;3.25;3.03;;;;;;;;;;5096525;28;20048;-89
2023/02/14 11:16:54;;;;;;;1.85;1.75;;;;;;;;;;5096382;28;20048;-90
2023/02/14 11:19:22;;;;;;;3.58;3.25;;;;;;;;;;5096670;28;20048;-90
2023/02/14 11:21:49;;;;;;;13.52;5.38;;;;;;;;;;5096177;28;20500;-90
2023/02/14 11:24:17;;;;;;;3.25;2.70;;;;;;;;;;5096326;28;20044;-90
2023/02/14 11:26:45;;;;;;;2.78;2.60;;;;;;;;;;5096643;28;20098;-90
2023/02/14 11:29:13;;;;;;;3.67;3.50;;;;;;;;;;5096539;28;20051;-90
2023/02/14 11:31:40;;;;;;;4.22;3.83;;;;;;;;;;5096731;28;20544;-88
2023/02/14 11:34:19;;;;;;;5.03;4.55;;;;;;;;;;5095846;28;20139;-87
2023/02/14 11:36:46;;;;;;;2.88;2.65;;;;;;;;;;5096137;28;20055;-89
2023/02/14 11:39:24;;;;;;;9.18;7.00;;;;;;;;;;5093295;28;20509;-88
2023/02/14 11:41:51;;;;;;;6.88;4.68;;;;;;;;;;5096350;28;20043;-88
2023/02/14 11:44:21;;;;;;;5.30;4.78;;;;;;;;;;5096600;28;20052;-90
2023/02/14 11:46:48;;;;;;;5.85;4.45;;;;;;;;;;5096778;28;20044;-90
2023/02/14 11:49:26;;;;;;;3.35;3.13;;;;;;;;;;5097015;28;20048;-91
2023/02/14 11:51:52;;;;;;;3.05;2.83;;;;;;;;;;5096241;28;20558;-89
2023/02/14 11:54:27;;;;;;;4.20;3.88;;;;;;;;;;5096729;28;20494;-89
2023/02/14 11:56:55;;;;;;;3.72;3.53;;;;;;;;;;5075923;28;20098;-88
2023/02/14 11:59:30;;;;;;;3.13;2.90;;;;;;;;;;5076451;28;20045;-87
2023/02/14 12:01:57;;;;;;;5.05;4.30;;;;;;;;;;5075788;28;20117;-89
2023/02/14 12:04:29;;;;;;;3.50;3.30;;;;;;;;;;5075782;28;20513;-90
2023/02/14 12:06:56;;;;;;;4.35;3.92;;;;;;;;;;5075516;28;20078;-89
2023/02/14 12:09:28;;;;;;;6.93;5.35;;;;;;;;;;5075713;28;20049;-87
2023/02/14 12:11:55;;;;;;;3.08;2.85;;;;;;;;;;5076215;28;20056;-89
2023/02/14 12:14:23;;;;;;;7.15;6.50;;;;;;;;;;5075318;28;20505;-88
2023/02/14 12:16:52;;;;;;;4.82;4.53;;;;;;;;;;5075383;28;20071;-89
2023/02/14 12:19:23;;;;;;;2.78;2.55;;;;;;;;;;5075635;28;20050;-89
2023/02/14 12:21:53;;;;;;;4.90;4.30;;;;;;;;;;5075753;28;20059;-88
2023/02/14 12:24:23;;;;;;;4.68;4.28;;;;;;;;;;5075610;28;20067;-87
2023/02/14 12:26:52;;;;;;;4.05;2.00;;;;;;;;;;5075161;28;20509;-88
2023/02/14 12:29:22;;;;;;;7.05;5.95;;;;;;;;;;5075510;28;20052;-89
2023/02/14 12:31:49;;;;;;;4.80;4.40;;;;;;;;;;5075177;28;20131;-87
2023/02/14 12:34:16;;;;;;;6.57;4.32;;;;;;;;;;5076027;28;20059;-88
2023/02/14 12:36:49;;;;;;;4.40;4.00;;;;;;;;;;5091708;28;20084;-87
2023/02/14 12:39:21;;;;;;;4.18;3.88;;;;;;;;;;5095164;28;20463;-89
2023/02/14 12:41:50;;;;;;;4.38;3.25;;;;;;;;;;5095501;28;20101;-89
2023/02/14 12:44:20;;;;;;;2.97;2.67;;;;;;;;;;5095038;28;20060;-89
2023/02/14 12:47:07;;;;;;;20.05;5.03;;;;;;;;;;5095354;28;20051;-88
2023/02/14 12:49:46;;;;;;;6.95;4.88;;;;;;;;;;5090592;28;20075;-89
2023/02/14 12:52:21;;;;;;;3.25;2.65;;;;;;;;;;5099848;28;20087;-89
2023/02/14 12:54:54;;;;;;;4.10;3.80;;;;;;;;;;5095407;28;20048;-89
2023/02/14 12:57:26;;;;;;;3.75;3.45;;;;;;;;;;5085278;28;20056;-89
2023/02/14 12:59:57;;;;;;;5.50;4.88;;;;;;;;;;5095319;28;20052;-88
2023/02/14 13:02:45;;;;;;;6.22;5.40;;;;;;;;;;5095226;28;20052;-90
2023/02/14 13:05:15;;;;;;;2.13;2.03;;;;;;;;;;5095086;28;20059;-88
2023/02/14 13:07:49;;;;;;;2.97;2.78;;;;;;;;;;5095220;28;20055;-90
2023/02/14 13:10:23;;;;;;;3.92;3.58;;;;;;;;;;5094934;28;20060;-90
2023/02/14 13:12:54;;;;;;;3.20;2.45;;;;;;;;;;5095014;28;20536;-89
2023/02/14 13:15:24;;;;;;;3.67;3.20;;;;;;;;;;5095023;28;20420;-90
2023/02/14 13:17:52;;;;;;;12.80;2.38;;;;;;;;;;5095168;28;20493;-89
2023/02/14 13:20:40;;;;;;;4.57;2.75;;;;;;;;;;5094856;28;20048;-88
2023/02/14 13:23:10;;;;;;;2.45;2.30;;;;;;;;;;5094834;28;20052;-88
2023/02/14 13:25:41;;;;;;;5.25;4.70;;;;;;;;;;5095040;28;20056;-90
2023/02/14 13:28:11;;;;;;;2.25;2.15;;;;;;;;;;5097590;28;20055;-87
2023/02/14 13:30:40;;;;;;;6.07;1.85;;;;;;;;;;5097655;28;20059;-87
2023/02/14 13:33:08;;;;;;;2.88;2.65;;;;;;;;;;5094600;28;20048;-89
2023/02/14 13:35:35;;;;;;;3.30;2.88;;;;;;;;;;5089327;28;20138;-89
2023/02/14 13:38:03;;;;;;;6.47;4.50;;;;;;;;;;5094819;28;20055;-88
2023/02/14 13:40:31;;;;;;;5.00;4.07;;;;;;;;;;5094332;28;20489;-89
2023/02/14 13:42:59;;;;;;;2.72;2.53;;;;;;;;;;5094810;28;20036;-89
2023/02/14 13:45:59;;;;;;;4.13;3.65;;;;;;;;;;5094697;28;20051;-88
2023/02/14 13:48:26;;;;;;;1.48;1.15;;;;;;;;;;5031780;28;20061;-88
2023/02/14 13:50:53;;;;;;;6.38;4.72;;;;;;;;;;5031657;28;20053;-88
2023/02/14 13:53:34;;;;;;;2.35;1.75;;;;;;;;;;5031655;28;20052;-89
2023/02/14 13:56:01;;;;;;;3.38;2.65;;;;;;;;;;5031184;28;20118;-88
2023/02/14 13:58:29;;;;;;;4.20;3.42;;;;;;;;;;5031921;28;20048;-87
2023/02/14 14:00:56;;;;;;;2.97;2.78;;;;;;;;;;5031773;28;20054;-91
2023/02/14 14:03:40;;;;;;;3.03;2.83;;;;;;;;;;5031700;28;20499;-88
2023/02/14 14:06:09;;;;;;;1.90;1.77;;;;;;;;;;5031408;28;20052;-88
2023/02/14 14:08:43;;;;;;;9.52;3.42;;;;;;;;;;5031332;28;20077;-87
2023/02/14 14:11:33;;;;;;;2.35;2.15;;;;;;;;;;5031365;28;20124;-89
2023/02/14 14:14:02;;;;;;;1.70;1.60;;;;;;;;;;5031589;28;20049;-89
2023/02/14 14:16:30;;;;;;;2.33;2.13;;;;;;;;;;5031806;28;20499;-89
2023/02/14 14:18:58;;;;;;;3.72;3.40;;;;;;;;;;5052208;28;20059;-88
2023/02/14 14:21:25;;;;;;;5.30;4.90;;;;;;;;;;5093628;28;20048;-89
2023/02/14 14:24:10;;;;;;;2.17;2.05;;;;;;;;;;5094050;28;20044;-89
2023/02/14 14:26:38;;;;;;;2.53;2.35;;;;;;;;;;5094267;28;20495;-88
2023/02/14 14:29:12;;;;;;;4.10;3.63;;;;;;;;;;5094058;28;20501;-89
2023/02/14 14:31:40;;;;;;;2.45;2.33;;;;;;;;;;5093881;28;20665;-91
2023/02/14 14:34:06;;;;;;;4.25;3.95;;;;;;;;;;5093987;28;20177;-88
2023/02/14 14:36:33;;;;;;;6.47;4.97;;;;;;;;;;5093661;28;20048;-88
2023/02/14 14:39:00;;;;;;;2.80;1.83;;;;;;;;;;5093781;28;20501;-89
2023/02/14 14:41:28;;;;;;;2.95;2.75;;;;;;;;;;5093288;28;20048;-90
2023/02/14 14:43:54;;;;;;;10.73;3.00;;;;;;;;;;5093727;28;20044;-89
2023/02/14 14:46:22;;;;;;;3.78;3.47;;;;;;;;;;5093282;28;20048;-89
2023/02/14 14:48:50;;;;;;;4.55;4.13;;;;;;;;;;5093467;28;20048;-89
2023/02/14 14:51:19;;;;;;;4.40;4.00;;;;;;;;;;5093503;28;20105;-89
2023/02/14 14:53:48;;;;;;;1.13;1.13;;;;;;;;;;5093312;28;20055;-89
2023/02/14 14:56:19;;;;;;;4.13;3.83;;;;;;;;;;5093199;28;20052;-90
2023/02/14 14:58:45;;;;;;;;;;;;;;;;;;5093644;28;20394;-87
2023/02/14 15:01:20;;;;;;;1.42;1.33;;;;;;;;;;5093222;28;19973;-89
2023/02/14 15:03:48;;;;;;;3.15;2.40;;;;;;;;;;5093508;28;20044;-88
2023/02/14 15:06:16;;;;;;;6.55;4.28;;;;;;;;;;5093271;28;20404;-88
2023/02/14 15:08:44;;;;;;;9.63;1.92;;;;;;;;;;5093455;28;20416;-89